Terminal Aerodrome Forecast
Issued by NWS

Home | Current Version | Previous Version | Graphics & Text | Print | Product List | Glossary On
Versions: 1 2 3 4 5 6 7 8 9 10 11 12 13 14 15 16 17 18 19 20
000
FTUS43 KGRB 052339
TAFCWA
TAF
KCWA 052339Z 0600/0624 15009KT 4SM BR OVC004
      TEMPO 0600/0604 P6SM NSW OVC006
     FM060500 15009KT 4SM BR OVC004 WS015/19035KT
     FM061100 17009KT 4SM BR OVC004
     FM061600 21010G17KT P6SM OVC008
     FM062000 25013G22KT P6SM -SHSN BKN015
     FM062200 25014G24KT P6SM -SHSN BKN025
      AMD LTD TO CLD VIS AND WIND 0603/0611=

USA.gov is the U.S. government's official web portal to all federal, state and local government web resources and services.